Impacts METAR Board
IDs:

KCLE - Cleveland/Hopkins In, OH, US

Updated at: 0400 UTC 21 Sep 2018
Potential Impact None Slight Moderate High
Time 20/16Z 20/17Z 20/18Z 20/19Z 20/20Z 20/21Z 20/22Z 20/23Z 21/00Z 21/01Z 21/02Z 21/03Z 21/04Z
Temp84 85 78 79 83 85 83 81 79 77 79 81 80
Dewpt69 70 69 69 68 68 69 69 70 70 71 70 70
Altim30.11 30.09 30.09 30.08 30.05 30.04 30.03 30.02 30.02 30.02 30.02 30.01 30.01
VIS10 10 10 10 10 10 10 10 10 10 10 10 10
CIG-- -- 60 48 -- -- 250 -- -- -- 250 -- --
CoverSCTSCTBKNBKNSCTSCTBKNSCTSCTSCTBKNSCTCLR
FltCatVFRVFRVFRVFRVFRVFRVFRVFRVFRVFRVFRVFRVFR
WX-------TSRA------------------
WDir170190200120120130130150160170180180
WSpd9 10 11 0 8 12 6 9 8 9 9 13 10
WGst-- -- -- -- -- -- -- -- -- -- -- -- --
Raw hourly METARs
KCLE 201551Z 17009KT 10SM FEW033 SCT100 SCT250 29/21 A3011 RMK AO2 SLP189 T02890206 $
KCLE 201651Z 19010KT 10SM FEW045 SCT095 SCT250 29/21 A3009 RMK AO2 SLP185 T02940211 $
KCLE 201751Z 02011KT 10SM FEW035 SCT049 BKN060 BKN250 26/21 A3009 RMK AO2 LTG DSNT NE AND E SLP186 T02560206 10306 20183 55009 $
KCLE 201851Z 00000KT 10SM -TSRA SCT038 BKN048CB BKN065 BKN250 26/21 A3008 RMK AO2 RAB16 TSB14 SLP182 OCNL LTGICCCCG SE-SW TS SE-SW MOV E P0000 T02610206
KCLE 202000Z 12008KT 10SM FEW040 SCT065 SCT250 28/20 A3005 RMK AO2 LTG DSNT SE TSE1954 T02830200
KCLE 202051Z 12012KT 10SM FEW060 SCT250 29/20 A3004 RMK AO2 TSE1954 SLP167 60000 T02940200 58017
KCLE 202151Z 13006KT 10SM FEW060 BKN250 28/21 A3003 RMK AO2 SLP164 T02830206
KCLE 202251Z 13009KT 10SM FEW065 SCT250 27/21 A3002 RMK AO2 SLP162 T02720206
KCLE 202351Z 15008KT 10SM SCT250 26/21 A3002 RMK AO2 SLP160 60000 T02610211 10294 20244 56007
KCLE 210051Z 16009KT 10SM SCT250 25/21 A3002 RMK AO2 SLP159 T02500211
KCLE 210151Z 17009KT 10SM BKN250 26/22 A3002 RMK AO2 SLP158 T02610217
KCLE 210251Z 18013KT 10SM SCT250 27/21 A3001 RMK AO2 SLP155 T02720211 58004
KCLE 210351Z 18010KT 10SM CLR 27/21 A3001 RMK AO2 SLP154 T02670211



Page loaded:  04:14 UTC  |   09:14 PM Pacific  |   10:14 PM Mountain  |   11:14 PM Central  |   12:14 AM Eastern

 

ADVISORIES

FORECASTS

FORECASTS

OBSERVATIONS

USER TOOLS

ABOUT US